Flight Track Log - Related Links

Times and Time Zones

All times are in EDT time to prevent confusion due to time zone crossing. See the N717AN flight status page for this flight to view local times or setup timezone preferences in your user account.

Time Position Orientation Groundspeed Altitude Reporting Facility
EDT Latitude Longitude Course Direction KTS km/h feet Rate Location/Type
Fri 04:46:02 51.4770 -0.4900 268° West 182 336 500  Level FlightAware ADS-B
Fri 04:46:26 51.4749 -0.5291 265° West 185 343 1,800 2,824 Climbing FlightAware ADS-B
Fri 04:46:36 51.4728 -0.5434 257° West 187 346 2,100 2,077 Climbing FlightAware ADS-B
Fri 04:46:52 51.4700 -0.5639 258° West 186 344 2,700 2,323 Climbing FlightAware ADS-B
Fri 04:47:07 51.4671 -0.5845 257° West 188 348 3,300 1,742 Climbing FlightAware ADS-B
Fri 04:47:23 51.4638 -0.6072 257° West 204 378 3,600 938 Climbing FlightAware ADS-B
Fri 04:47:39 51.4603 -0.6321 257° West 223 414 3,800 968 Climbing FlightAware ADS-B
Fri 04:47:54 51.4565 -0.6584 257° West 245 454 4,100 1,364 Climbing FlightAware ADS-B
Fri 04:48:01 51.4551 -0.6707 260° West 249 462 4,300 2,000 Climbing FlightAware ADS-B
Fri 04:48:06 51.4543 -0.6816 263° West 253 468 4,500 1,800 Climbing FlightAware ADS-B
Fri 04:48:11 51.4540 -0.6911 267° West 256 475 4,600 2,211 Climbing FlightAware ADS-B
Fri 04:48:25 51.4537 -0.7177 269° West 259 480 5,200 2,200 Climbing FlightAware ADS-B
Fri 04:48:41 51.4538 -0.7474 270° West 257 476 5,700 1,161 Climbing FlightAware ADS-B
Fri 04:48:56 51.4539 -0.7770 270° West 260 481 5,800 200 Climbing FlightAware ADS-B
Fri 04:49:11 51.4536 -0.8058 269° West 260 481 5,800  Level FlightAware ADS-B
Fri 04:49:23 51.4534 -0.8275 269° West 261 483 5,800 444 Level FlightAware ADS-B
Fri 04:49:38 51.4532 -0.8577 269° West 258 478 6,000 1,241 Climbing FlightAware ADS-B
Fri 04:49:52 51.4534 -0.8834 271° West 265 491 6,400 2,100 Climbing FlightAware ADS-B
Fri 04:49:58 51.4542 -0.8967 276° West 266 492 6,700 2,500 Climbing FlightAware ADS-B
Fri 04:50:04 51.4553 -0.9070 280° West 266 492 6,900 2,143 Climbing FlightAware ADS-B
Fri 04:50:12 51.4576 -0.9227 283° West 270 501 7,200 2,211 Climbing FlightAware ADS-B
Fri 04:50:23 51.4618 -0.9450 287° West 276 512 7,600 1,556 Climbing FlightAware ADS-B
Fri 04:50:39 51.4680 -0.9756 288° West 291 539 7,900 1,161 Climbing FlightAware ADS-B
Fri 04:50:54 51.4746 -1.0093 288° West 308 570 8,200 1,091 Climbing FlightAware ADS-B
Fri 04:51:12 51.4826 -1.0494 288° West 326 604 8,500 1,059 Climbing FlightAware ADS-B
Fri 04:51:28 51.4902 -1.0868 288° West 342 634 8,800 1,548 Climbing FlightAware ADS-B
Fri 04:51:43 51.4975 -1.1231 288° West 350 649 9,300 2,533 Climbing FlightAware ADS-B
Fri 04:52:13 51.5121 -1.1991 287° West 353 653 10,700 2,656 Climbing FlightAware ADS-B
Fri 04:52:44 51.5273 -1.2758 288° West 361 668 12,000 2,667 Climbing FlightAware ADS-B
Fri 04:53:07 51.5395 -1.3370 288° West 367 679 13,100 2,813 Climbing FlightAware ADS-B
Fri 04:53:16 51.5444 -1.3583 290° West 369 684 13,500 -1,200 Climbing FlightAware ADS-B
Fri 04:53:32 51.5549 -1.4007 290° West 388 719 12,600 2,000 Descending FlightAware UK
Fri 04:53:49 51.5666 -1.4451 290° West 385 713 14,600 4,340 Climbing FlightAware ADS-B
Fri 04:54:19 51.5868 -1.5258 292° West 389 721 16,000 2,600 Climbing FlightAware ADS-B
Fri 04:54:49 51.6071 -1.6074 292° West 397 735 17,200 735 Climbing FlightAware ADS-B
Fri 04:55:08 51.6196 -1.6581 292° West 406 752 16,600 2,903 Descending FlightAware UK
Fri 04:55:20 51.6280 -1.6916 292° West 397 735 18,700 2,000 Climbing FlightAware ADS-B
Fri 04:55:44 51.6439 -1.7573 292° West 418 774 17,800 1,875 Descending FlightAware UK
Fri 04:55:52 51.6494 -1.7805 292° West 407 753 19,700 3,385 Climbing FlightAware ADS-B
Fri 04:56:23 51.6710 -1.8680 292° West 415 769 20,000 -1,500 Climbing FlightAware ADS-B
Fri 04:56:44 51.6858 -1.9282 292° West 424 785 18,400  Descending FlightAware UK
Fri 04:56:54 51.6930 -1.9578 292° West 416 771 20,000 200 Climbing FlightAware ADS-B
Fri 04:57:14 51.7069 -2.0144 292° West 426 789 18,500  Descending FlightAware UK
Fri 04:57:25 51.7150 -2.0475 292° West 414 766 20,000 1,957 Climbing FlightAware ADS-B
Fri 04:58:00 51.7392 -2.1470 291° West 414 766 20,000 -1,364 Level FlightAware ADS-B
Fri 04:58:31 51.7614 -2.2373 291° West 426 789 18,500  Descending FlightAware UK
Fri 04:58:41 51.7681 -2.2649 291° West 414 766 20,000 2,500 Climbing FlightAware ADS-B
Fri 04:59:07 51.7860 -2.3368 292° West 413 764 20,000 915 Level FlightAware ADS-B
Fri 04:59:40 51.8082 -2.4355 290° West 419 776 20,900 2,038 Climbing FlightAware ADS-B
Fri 05:00:00 51.8177 -2.4959 284° West 418 774 21,800 -154 Climbing FlightAware ADS-B
Fri 05:00:19 51.8262 -2.5540 284° West 432 800 20,800 1,742 Descending FlightAware UK
Fri 05:00:31 51.8307 -2.5892 284° West 425 787 22,700 1,600 Climbing FlightAware ADS-B
Fri 05:00:49 51.8380 -2.6475 284° West 442 819 21,600 1,600 Descending FlightAware UK
Fri 05:01:01 51.8420 -2.6840 284° West 429 795 23,500 3,396 Climbing FlightAware ADS-B
Fri 05:01:42 51.8550 -2.7980 281° West 440 814 24,600 1,839 Climbing FlightAware ADS-B
Fri 05:02:03 51.8654 -2.8835 281° West 436 808 25,400 -324 Climbing FlightAware ADS-B
Fri 05:02:19 51.8716 -2.9365 281° West 462 856 24,400 -882 Descending FlightAware UK
Fri 05:02:37 51.8785 -2.9951 281° West 464 859 24,900 1,667 Climbing FlightAware UK
Fri 05:02:55 51.8853 -3.0540 281° West 466 863 25,400 5,280 Climbing FlightAware UK
Fri 05:03:02 51.8870 -3.0720 281° West 449 832 27,100 1,600 Climbing FlightAware ADS-B
Fri 05:03:25 51.8969 -3.1530 281° West 470 871 26,200 -878 Descending FlightAware UK
Fri 05:03:43 51.9040 -3.2133 281° West 474 877 26,500 5,182 Climbing FlightAware UK
Fri 05:03:47 51.9040 -3.2170 281° West 458 848 28,100 1,500 Climbing FlightAware ADS-B
Fri 05:04:07 51.9138 -3.2943 281° West 478 885 27,100 1,350 Descending FlightAware UK
Fri 05:04:27 51.9200 -3.3500 281° West 465 861 29,000 1,571 Climbing FlightAware ADS-B
Fri 05:04:49 51.9303 -3.4373 281° West 482 893 28,200 1,600 Descending FlightAware UK
Fri 05:05:12 51.9390 -3.5120 281° West 469 869 30,200 2,762 Climbing FlightAware ADS-B
Fri 05:05:52 51.9550 -3.6480 281° West 470 871 31,100 179 Climbing FlightAware ADS-B
Fri 05:06:19 51.9657 -3.7476 281° West 490 908 30,400 1,350 Descending FlightAware UK
Fri 05:06:32 51.9700 -3.7770 281° West 465 861 32,000  Climbing FlightAware ADS-B
Fri 05:06:55 51.9834 -3.8693 281° West 490 908 30,400  Descending FlightAware UK
Fri 05:07:03 51.9873 -3.8979 281° West 465 861 32,000  Climbing FlightAware ADS-B
Fri 05:07:25 51.9973 -3.9705 281° West 488 904 30,400 -2,308 Descending FlightAware UK
Fri 05:07:42 52.0052 -4.0306 282° West 488 904 30,500 3,000 Climbing FlightAware UK
Fri 05:07:57 52.0090 -4.0630 282° West 461 855 32,000  Climbing FlightAware ADS-B
Fri 05:08:19 52.0209 -4.1531 282° West 488 904 30,500 -2,308 Descending FlightAware UK
Fri 05:08:36 52.0285 -4.2133 282° West 488 904 30,500 2,727 Level FlightAware UK
Fri 05:08:52 52.0330 -4.2480 282° West 461 855 32,000  Climbing FlightAware ADS-B
Fri 05:09:36 52.0539 -4.4165 282° West 488 904 30,500  Descending FlightAware UK
Fri 05:09:37 52.0510 -4.3920 282° West 462 856 32,000  Climbing FlightAware ADS-B
Fri 05:09:54 52.0614 -4.4776 282° West 488 904 30,500 -2,571 Descending FlightAware UK
Fri 05:10:12 52.0690 -4.5386 281° West 488 904 30,500 3,214 Level FlightAware UK
Fri 05:10:22 52.0710 -4.5520 281° West 462 856 32,000  Climbing FlightAware ADS-B
Fri 05:10:42 52.0814 -4.6405 281° West 486 900 30,500 -2,368 Descending FlightAware UK
Fri 05:11:00 52.0890 -4.7017 281° West 486 900 30,500 4,500 Level FlightAware UK
Fri 05:11:02 52.0880 -4.6940 281° West 462 856 32,000  Climbing FlightAware ADS-B
Fri 05:11:18 52.0965 -4.7629 281° West 488 904 30,500 -2,647 Descending FlightAware UK
Fri 05:11:36 52.1039 -4.8242 281° West 488 904 30,500 3,103 Level FlightAware UK
Fri 05:11:47 52.1050 -4.8370 281° West 462 856 32,000  Climbing FlightAware ADS-B
Fri 05:12:06 52.1161 -4.9258 281° West 490 908 30,500 -2,432 Descending FlightAware UK
Fri 05:12:24 52.1234 -4.9868 281° West 488 904 30,500 4,286 Level FlightAware UK
Fri 05:12:27 52.1220 -4.9780 281° West 460 851 32,000  Climbing FlightAware ADS-B
Fri 05:12:42 52.1307 -5.0478 281° West 488 904 30,500 -2,727 Descending FlightAware UK
Fri 05:13:00 52.1384 -5.1085 282° West 488 904 30,500 3,600 Level FlightAware UK
Fri 05:13:07 52.1400 -5.1150 282° West 459 850 32,000  Climbing FlightAware ADS-B
Fri 05:13:24 52.1495 -5.1889 282° West 488 904 30,500 -2,571 Descending FlightAware UK
Fri 05:13:42 52.1578 -5.2494 283° West 488 904 30,500 3,913 Level FlightAware UK
Fri 05:13:47 52.1570 -5.2450 283° West 459 850 32,000  Climbing FlightAware ADS-B
Fri 05:14:06 52.1686 -5.3304 283° West 490 908 30,500 -2,432 Descending FlightAware UK
Fri 05:14:24 52.1764 -5.3912 282° West 490 908 30,500 3,462 Level FlightAware UK
Fri 05:14:32 52.1780 -5.4080 282° West 456 845 32,000  Climbing FlightAware ADS-B
Fri 05:14:54 52.1893 -5.4921 282° West 490 908 30,500 -2,250 Descending FlightAware UK
Fri 05:15:12 52.1968 -5.5522 281° West 488 904 30,500 5,000 Level FlightAware UK
Fri 05:15:12 52.1960 -5.5460 281° West 453 838 32,000  Climbing FlightAware ADS-B
Fri 05:15:30 52.2043 -5.6122 281° West 488 904 30,500 -2,500 Descending FlightAware UK
Fri 05:15:48 52.2119 -5.6722 282° West 488 904 30,500 3,333 Level FlightAware UK
Fri 05:15:57 52.2140 -5.6920 282° West 453 838 32,000  Climbing FlightAware ADS-B
Fri 05:16:12 52.2219 -5.7521 282° West 488 904 30,500 -2,727 Descending FlightAware UK
Fri 05:16:30 52.2293 -5.8119 282° West 488 904 30,500 3,600 Level FlightAware UK
Fri 05:16:37 52.2310 -5.8260 282° West 452 837 32,000  Climbing FlightAware ADS-B
Fri 05:16:54 52.2393 -5.8918 282° West 488 904 30,500 -2,571 Descending FlightAware UK
Fri 05:17:12 52.2467 -5.9517 281° West 488 904 30,500 3,214 Level FlightAware UK
Fri 05:17:22 52.2500 -5.9790 281° West 450 834 32,000  Climbing FlightAware ADS-B
Fri 05:17:42 52.2588 -6.0509 281° West 488 904 30,500 -2,368 Descending FlightAware UK
Fri 05:18:00 52.2662 -6.1107 281° West 488 904 30,500 4,500 Level FlightAware UK
Fri 05:18:02 52.2650 -6.1050 281° West 450 834 32,000  Climbing FlightAware ADS-B
Fri 05:18:18 52.2735 -6.1706 281° West 488 904 30,500 -2,647 Descending FlightAware UK
Fri 05:18:36 52.2807 -6.2305 281° West 488 904 30,500 3,750 Level FlightAware UK
Fri 05:18:42 52.2830 -6.2470 281° West 450 834 32,000  Climbing FlightAware ADS-B
Fri 05:19:00 52.2903 -6.3104 281° West 488 904 30,500 -2,500 Descending FlightAware UK
Fri 05:19:18 52.2976 -6.3702 281° West 488 904 30,500 3,333 Level FlightAware UK
Fri 05:19:27 52.3000 -6.3940 281° West 451 835 32,000  Climbing FlightAware ADS-B
Fri 05:19:42 52.3071 -6.4503 281° West 490 908 30,500 -2,909 Descending FlightAware UK
Fri 05:20:00 52.3142 -6.5104 281° West 488 904 30,400 -167 Descending FlightAware UK
Fri 05:20:18 52.3213 -6.5705 281° West 488 904 30,400 4,364 Level FlightAware UK
Fri 05:20:22 52.3210 -6.5650 281° West 451 835 32,000  Climbing FlightAware ADS-B
Fri 05:20:42 52.3307 -6.6505 281° West 490 908 30,400 -2,368 Descending FlightAware UK
Fri 05:21:00 52.3377 -6.7105 281° West 488 904 30,500 4,800 Climbing FlightAware UK
Fri 05:21:02 52.3360 -6.7000 281° West 449 832 32,000  Climbing FlightAware ADS-B
Fri 05:21:18 52.3447 -6.7703 281° West 486 900 30,500 -2,647 Descending FlightAware UK
Fri 05:21:36 52.3516 -6.8301 281° West 488 904 30,500 3,103 Level FlightAware UK
Fri 05:21:47 52.3530 -6.8470 281° West 449 832 32,000  Climbing FlightAware ADS-B
Fri 05:22:06 52.3632 -6.9299 281° West 488 904 30,500 -2,432 Descending FlightAware UK
Fri 05:22:24 52.3701 -6.9898 281° West 488 904 30,500 4,286 Level FlightAware UK
Fri 05:22:27 52.3680 -6.9770 281° West 448 830 32,000  Climbing FlightAware ADS-B
Fri 05:22:42 52.3768 -7.0497 281° West 488 904 30,500 -2,909 Descending FlightAware UK
Fri 05:23:00 52.3835 -7.1095 280° West 488 904 30,400 3,000 Descending FlightAware UK
Fri 05:23:12 52.3840 -7.1190 280° West 448 830 32,000 200 Climbing FlightAware ADS-B
Fri 05:23:30 52.3946 -7.2085 280° West 488 904 30,500 -2,500 Descending FlightAware UK
Fri 05:23:48 52.4013 -7.2683 280° West 488 904 30,500 4,091 Level FlightAware UK
Fri 05:23:52 52.4010 -7.2670 280° West 447 827 32,000 -250 Climbing FlightAware ADS-B
Fri 05:24:12 52.4102 -7.3479 280° West 488 904 30,400 -2,368 Descending FlightAware UK
Fri 05:24:30 52.4168 -7.4076 280° West 490 908 30,500 3,840 Climbing FlightAware UK
Fri 05:24:37 52.4180 -7.4240 280° West 446 826 32,000  Climbing FlightAware ADS-B
Fri 05:24:54 52.4256 -7.4872 280° West 490 908 30,500 -2,571 Descending FlightAware UK
Fri 05:25:12 52.4321 -7.5468 280° West 488 904 30,500 3,913 Level FlightAware UK
Fri 05:25:17 52.4330 -7.5590 280° West 443 821 32,000  Climbing FlightAware ADS-B
Fri 05:25:36 52.4407 -7.6261 280° West 488 904 30,500 -2,432 Descending FlightAware UK
Fri 05:25:54 52.4472 -7.6855 280° West 488 904 30,500 4,286 Level FlightAware UK
Fri 05:25:57 52.4470 -7.6860 280° West 443 821 32,000  Climbing FlightAware ADS-B
Fri 05:26:12 52.4535 -7.7448 280° West 488 904 30,500 -2,727 Descending FlightAware UK
Fri 05:26:30 52.4598 -7.8042 280° West 488 904 30,500 3,000 Level FlightAware UK
Fri 05:26:42 52.4630 -7.8370 280° West 444 822 32,000  Climbing FlightAware ADS-B
Fri 05:27:00 52.4702 -7.9031 280° West 488 904 30,500 -2,500 Descending FlightAware UK
Fri 05:27:18 52.4765 -7.9627 280° West 488 904 30,500  Level FlightAware UK
Fri 05:27:36 52.4829 -8.0222 280° West 488 904 30,500 3,750 Level FlightAware UK
Fri 05:27:42 52.4820 -8.0190 280° West 443 821 32,000  Climbing FlightAware ADS-B
Fri 05:28:00 52.4912 -8.1017 280° West 488 904 30,500 -2,500 Descending FlightAware UK
Fri 05:28:18 52.4973 -8.1614 280° West 488 904 30,500  Level FlightAware UK
Fri 05:28:36 52.5033 -8.2212 279° West 488 904 30,500  Level FlightAware UK
Fri 05:28:54 52.5094 -8.2810 280° West 490 908 30,500 3,462 Level FlightAware UK
Fri 05:29:02 52.5100 -8.2880 280° West 442 819 32,000  Climbing FlightAware ADS-B
Fri 05:29:18 52.5176 -8.3606 280° West 490 908 30,500 -2,647 Descending FlightAware UK
Fri 05:29:36 52.5236 -8.4195 280° West 488 904 30,500 3,750 Level FlightAware UK
Fri 05:29:42 52.5240 -8.4230 280° West 440 814 32,000  Climbing FlightAware ADS-B
Fri 05:30:00 52.5317 -8.4989 280° West 488 904 30,500 -2,500 Descending FlightAware UK
Fri 05:30:18 52.5379 -8.5583 280° West 488 904 30,500 4,091 Level FlightAware UK
Fri 05:30:22 52.5370 -8.5520 280° West 440 814 32,000  Climbing FlightAware ADS-B
Fri 05:30:42 52.5458 -8.6376 280° West 488 904 30,500 -2,368 Descending FlightAware UK
Fri 05:31:00 52.5516 -8.6971 279° West 488 904 30,500 3,600 Level FlightAware UK
Fri 05:31:07 52.5520 -8.7040 279° West 441 816 32,000  Climbing FlightAware ADS-B
Fri 05:31:24 52.5593 -8.7765 279° West 488 904 30,500 -2,571 Descending FlightAware UK
Fri 05:31:42 52.5650 -8.8358 279° West 490 908 30,500 5,000 Level FlightAware UK
Fri 05:31:42 52.5630 -8.8150 279° West 442 819 32,000  Climbing FlightAware ADS-B
Fri 05:32:00 52.5708 -8.8952 279° West 490 908 30,500 -2,500 Descending FlightAware UK
Fri 05:32:18 52.5766 -8.9547 279° West 490 908 30,500 2,813 Level FlightAware UK
Fri 05:32:32 52.5800 -8.9860 279° West 439 813 32,000 1,667 Climbing FlightAware ADS-B
Fri 05:33:12 52.5930 -9.1230 279° West 437 810 32,000  Level FlightAware ADS-B
Fri 05:33:52 52.6050 -9.2520 279° West 437 810 32,000  Level FlightAware ADS-B
Fri 05:34:47 52.6210 -9.4290 279° West 439 813 32,000  Level FlightAware ADS-B
Fri 05:35:47 52.6390 -9.6260 279° West 438 811 32,000  Level FlightAware ADS-B
Fri 05:36:27 52.6510 -9.7600 278° West 438 811 32,000  Level FlightAware ADS-B
Fri 05:37:12 52.6650 -9.9090 279° West 436 808 32,000  Level FlightAware ADS-B
Fri 05:37:52 52.6760 -10.0430 278° West 434 803 32,000 75 Level FlightAware ADS-B
Fri 05:38:32 52.6870 -10.1710 278° West 435 806 32,100 706 Climbing FlightAware ADS-B
Fri 05:39:17 52.7000 -10.3160 278° West 433 801 33,000 635 Climbing FlightAware ADS-B
Fri 05:39:57 52.7110 -10.4500 278° West 431 798 33,000  Level FlightAware ADS-B
Fri 05:40:42 52.7230 -10.5940 278° West 429 795 33,000  Level FlightAware ADS-B
Fri 05:41:17 52.7320 -10.7100 277° West 429 795 33,000  Level FlightAware ADS-B
Fri 05:42:07 52.7450 -10.8750 277° West 428 793 33,000  Level FlightAware ADS-B
Fri 05:42:47 52.7560 -11.0040 278° West 429 795 33,000  Level FlightAware ADS-B
Fri 05:43:27 52.7660 -11.1320 277° West 428 793 33,000  Level FlightAware ADS-B
Fri 05:44:12 52.7770 -11.2750 277° West 429 795 33,000  Level FlightAware ADS-B
Fri 05:44:57 52.7870 -11.4190 277° West 428 793 33,000  Level FlightAware ADS-B
Fri 05:45:37 52.7970 -11.5500 277° West 428 793 33,000  Level FlightAware ADS-B
Fri 05:46:12 52.8050 -11.6540 277° West 428 793 33,000  Level FlightAware ADS-B
Fri 05:47:02 52.8170 -11.8270 277° West 427 790 33,000  Level FlightAware ADS-B
Fri 05:47:37 52.8250 -11.9420 277° West 427 790 33,000  Level FlightAware ADS-B
Fri 05:48:27 52.8370 -12.1040 277° West 427 790 33,000  Level FlightAware ADS-B
Fri 05:49:07 52.8460 -12.2350 277° West 429 795 33,000  Level FlightAware ADS-B
Fri 05:49:47 52.8540 -12.3550 276° West 428 793 33,000  Level FlightAware ADS-B
Fri 05:50:32 52.8630 -12.4960 276° West 426 789 33,000  Level FlightAware ADS-B
Fri 05:51:27 52.8730 -12.6650 276° West 424 785 33,000  Level FlightAware ADS-B
Fri 05:52:07 52.8820 -12.7990 276° West 422 782 33,000  Level FlightAware ADS-B
Fri 05:52:52 52.8920 -12.9560 276° West 422 782 33,000  Level FlightAware ADS-B
Fri 05:53:27 52.8960 -13.0540 274° West 422 782 33,000  Level FlightAware ADS-B
Fri 05:54:17 52.9020 -13.1920 274° West 422 782 33,000  Level FlightAware ADS-B
Fri 05:54:57 52.9070 -13.3010 274° West 422 782 33,000  Level FlightAware ADS-B
Fri 05:55:37 52.9110 -13.4110 273° West 422 782 33,000  Level FlightAware ADS-B
Fri 05:56:17 52.9160 -13.5210 274° West 422 782 33,000  Level FlightAware ADS-B
Fri 05:56:57 52.9210 -13.6310 274° West 422 782 33,000  Level FlightAware ADS-B
Fri 05:57:37 52.9250 -13.7410 273° West 422 782 33,000  Level FlightAware ADS-B
Fri 05:58:27 52.9310 -13.8780 274° West 422 782 33,000  Level FlightAware ADS-B
Fri 05:59:07 52.9360 -13.9880 274° West 422 782 33,000  Level FlightAware ADS-B
Fri 05:59:47 52.9400 -14.0980 273° West 422 782 33,000  Level FlightAware ADS-B
Fri 06:00:27 52.9450 -14.2080 274° West 422 782 33,000  Level FlightAware ADS-B
Fri 06:01:07 52.9490 -14.3180 273° West 422 782 33,000  Level FlightAware ADS-B
Fri 06:01:57 52.9550 -14.4550 274° West 422 782 33,000  Level FlightAware ADS-B
Fri 06:02:37 52.9600 -14.5650 274° West 422 782 33,000  Level FlightAware ADS-B
Fri 06:05:00 52.9533 -15.0921 273° West  Level FlightAware Approximate
Fri 06:06:00 52.9598 -15.3124 273° West  Level FlightAware Approximate
Fri 06:07:00 52.9658 -15.5328 273° West  Level FlightAware Approximate
Fri 06:08:00 52.9714 -15.7531 273° West  Level FlightAware Approximate
Fri 06:09:00 52.9766 -15.9736 272° West  Level FlightAware Approximate
Fri 06:10:00 52.9814 -16.1941 272° West  Level FlightAware Approximate
Fri 06:11:00 52.9858 -16.4147 272° West  Level FlightAware Approximate
Fri 06:12:00 52.9898 -16.6353 272° West  Level FlightAware Approximate
Fri 06:13:00 52.9934 -16.8559 272° West  Level FlightAware Approximate
Fri 06:14:00 52.9966 -17.0766 271° West  Level FlightAware Approximate
Fri 06:15:00 52.9993 -17.2973 271° West  Level FlightAware Approximate
Fri 06:16:00 53.0017 -17.5180 271° West  Level FlightAware Approximate
Fri 06:17:00 53.0036 -17.7388 271° West  Level FlightAware Approximate
Fri 06:18:00 53.0052 -17.9595 271° West  Level FlightAware Approximate
Fri 06:19:00 53.0063 -18.1803 271° West  Level FlightAware Approximate
Fri 06:20:00 53.0070 -18.4011 270° West  Level FlightAware Approximate
Fri 06:21:00 53.0073 -18.6219 270° West  Level FlightAware Approximate
Fri 06:22:00 53.0072 -18.8427 270° West  Level FlightAware Approximate
Fri 06:23:00 53.0067 -19.0635 270° West  Level FlightAware Approximate
Fri 06:24:00 53.0058 -19.2843 270° West  Level FlightAware Approximate
Fri 06:25:00 53.0045 -19.5051 270° West  Level FlightAware Approximate
Fri 06:26:00 53.0027 -19.7258 269° West  Level FlightAware Approximate
Fri 06:27:00 53.0006 -19.9466 269° West  Level FlightAware Approximate
Fri 06:27:00 53.0000 -20.0000 265° West 516 956 33,000  Level ETMS Enhanced Traffic Management System
Fri 06:28:00 52.9908 -20.1613 265° West  Level FlightAware Approximate
Fri 06:29:00 52.9783 -20.3757 265° West  Level FlightAware Approximate
Fri 06:30:00 52.9654 -20.5899 264° West  Level FlightAware Approximate
Fri 06:31:00 52.9521 -20.8040 264° West  Level FlightAware Approximate
Fri 06:32:00 52.9384 -21.0180 264° West  Level FlightAware Approximate
Fri 06:33:00 52.8952 -21.6562 263° West 516 956 33,000  Level FlightAware Transoceanic
Fri 06:34:00 52.8783 -21.8922 263° West 516 956 33,000  Level FlightAware Transoceanic
Fri 06:35:00 52.8610 -22.1279 263° West 516 956 33,000  Level FlightAware Transoceanic
Fri 06:36:00 52.8432 -22.3634 263° West 516 956 33,000  Level FlightAware Transoceanic
Fri 06:37:00 52.8250 -22.5988 263° West 516 956 33,000  Level FlightAware Transoceanic
Fri 06:38:00 52.8063 -22.8340 262° West 516 956 33,000  Level FlightAware Transoceanic
Fri 06:39:00 52.7871 -23.0689 262° West 516 956 33,000  Level FlightAware Transoceanic
Fri 06:40:00 52.7674 -23.3036 262° West 516 956 33,000  Level FlightAware Transoceanic
Fri 06:41:00 52.7473 -23.5382 262° West 516 956 33,000  Level FlightAware Transoceanic
Fri 06:42:00 52.7268 -23.7725 262° West 516 956 33,000  Level FlightAware Transoceanic
Fri 06:43:00 52.7057 -24.0065 261° West 516 956 33,000  Level FlightAware Transoceanic
Fri 06:44:00 52.6843 -24.2404 261° West 516 956 33,000  Level FlightAware Transoceanic
Fri 06:45:00 52.6623 -24.4740 261° West 516 956 33,000  Level FlightAware Transoceanic
Fri 06:46:00 52.6399 -24.7074 261° West 516 956 33,000  Level FlightAware Transoceanic
Fri 06:47:00 52.6170 -24.9405 261° West 516 956 33,000  Level FlightAware Transoceanic
Fri 06:48:00 52.5937 -25.1734 261° West 516 956 33,000  Level FlightAware Transoceanic
Fri 06:49:00 52.5699 -25.4061 260° West 516 956 33,000  Level FlightAware Transoceanic
Fri 06:50:00 52.5457 -25.6385 260° West 516 956 33,000  Level FlightAware Transoceanic
Fri 06:51:00 52.5210 -25.8706 260° West 516 956 33,000  Level FlightAware Transoceanic
Fri 06:52:00 52.4959 -26.1025 260° West 516 956 33,000  Level FlightAware Transoceanic
Fri 06:53:00 52.4703 -26.3341 260° West 516 956 33,000  Level FlightAware Transoceanic
Fri 06:54:00 52.4442 -26.5654 259° West 516 956 33,000  Level FlightAware Transoceanic
Fri 06:55:00 52.4177 -26.7964 259° West 516 956 33,000  Level FlightAware Transoceanic
Fri 06:56:00 52.3908 -27.0272 259° West 516 956 33,000  Level FlightAware Transoceanic
Fri 06:57:00 52.3634 -27.2577 259° West 516 956 33,000  Level FlightAware Transoceanic
Fri 06:58:00 52.3355 -27.4879 259° West 516 956 33,000  Level FlightAware Transoceanic
Fri 06:59:00 52.3073 -27.7178 259° West 516 956 33,000  Level FlightAware Transoceanic
Fri 07:00:00 52.2785 -27.9474 258° West 516 956 33,000  Level FlightAware Transoceanic
Fri 07:01:00 52.2493 -28.1767 258° West 516 956 33,000  Level FlightAware Transoceanic
Fri 07:02:00 52.2197 -28.4058 258° West 516 956 33,000  Level FlightAware Transoceanic
Fri 07:03:00 52.1896 -28.6345 258° West 516 956 33,000  Level FlightAware Transoceanic
Fri 07:04:00 52.1591 -28.8629 258° West 516 956 33,000  Level FlightAware Transoceanic
Fri 07:05:00 52.1282 -29.0909 257° West 516 956 33,000  Level FlightAware Transoceanic
Fri 07:06:00 52.0968 -29.3187 257° West 516 956 33,000  Level FlightAware Transoceanic
Fri 07:07:00 52.0650 -29.5461 257° West 516 956 33,000  Level FlightAware Transoceanic
Fri 07:08:00 52.0327 -29.7732 257° West 516 956 33,000  Level FlightAware Transoceanic
Fri 07:09:00 52.0031 -29.9784 257° West  Level FlightAware Approximate
Fri 07:10:00 51.9732 -30.1832 257° West  Level FlightAware Approximate
Fri 07:11:00 51.9906 -30.1658 265° West  Level FlightAware Approximate
Fri 07:12:00 51.9784 -30.3758 265° West  Level FlightAware Approximate
Fri 07:13:00 51.9658 -30.5857 265° West  Level FlightAware Approximate
Fri 07:14:00 51.9528 -30.7955 264° West  Level FlightAware Approximate
Fri 07:15:00 51.9395 -31.0051 264° West  Level FlightAware Approximate
Fri 07:16:00 51.9258 -31.2146 264° West  Level FlightAware Approximate
Fri 07:17:00 51.9117 -31.4240 264° West  Level FlightAware Approximate
Fri 07:18:00 51.8972 -31.6332 264° West  Level FlightAware Approximate
Fri 07:19:00 51.8824 -31.8423 264° West  Level FlightAware Approximate
Fri 07:20:00 51.8672 -32.0513 263° West  Level FlightAware Approximate
Fri 07:21:00 51.8516 -32.2601 263° West  Level FlightAware Approximate
Fri 07:22:00 51.8357 -32.4688 263° West  Level FlightAware Approximate
Fri 07:23:00 51.8194 -32.6773 263° West  Level FlightAware Approximate
Fri 07:24:00 51.8027 -32.8857 263° West  Level FlightAware Approximate
Fri 07:25:00 51.7857 -33.0939 263° West  Level FlightAware Approximate
Fri 07:26:00 51.7682 -33.3020 262° West  Level FlightAware Approximate
Fri 07:27:00 51.7505 -33.5099 262° West  Level FlightAware Approximate
Fri 07:28:00 51.7323 -33.7176 262° West  Level FlightAware Approximate
Fri 07:29:00 51.7138 -33.9252 262° West  Level FlightAware Approximate
Fri 07:30:00 51.6949 -34.1326 262° West  Level FlightAware Approximate
Fri 07:31:00 51.6757 -34.3398 262° West  Level FlightAware Approximate
Fri 07:32:00 51.6561 -34.5468 261° West  Level FlightAware Approximate
Fri 07:33:00 51.6361 -34.7537 261° West  Level FlightAware Approximate
Fri 07:34:00 51.6158 -34.9604 261° West  Level FlightAware Approximate
Fri 07:35:00 51.5951 -35.1669 261° West  Level FlightAware Approximate
Fri 07:36:00 51.5741 -35.3732 261° West  Level FlightAware Approximate
Fri 07:37:00 51.5526 -35.5793 261° West  Level FlightAware Approximate
Fri 07:38:00 51.5308 -35.7852 260° West  Level FlightAware Approximate
Fri 07:39:00 51.5087 -35.9909 260° West  Level FlightAware Approximate
Fri 07:40:00 51.4862 -36.1964 260° West  Level FlightAware Approximate
Fri 07:41:00 51.4633 -36.4017 260° West  Level FlightAware Approximate
Fri 07:42:00 51.4401 -36.6068 260° West  Level FlightAware Approximate
Fri 07:43:00 51.4166 -36.8117 260° West  Level FlightAware Approximate
Fri 07:44:00 51.3926 -37.0164 259° West  Level FlightAware Approximate
Fri 07:45:00 51.3684 -37.2209 259° West  Level FlightAware Approximate
Fri 07:46:00 51.3437 -37.4251 259° West  Level FlightAware Approximate
Fri 07:47:00 51.3187 -37.6291 259° West  Level FlightAware Approximate
Fri 07:48:00 51.2934 -37.8329 259° West  Level FlightAware Approximate
Fri 07:49:00 51.2677 -38.0365 259° West  Level FlightAware Approximate
Fri 07:50:00 51.2416 -38.2398 259° West  Level FlightAware Approximate
Fri 07:51:00 51.2152 -38.4429 258° West  Level FlightAware Approximate
Fri 07:52:00 51.1884 -38.6458 258° West  Level FlightAware Approximate
Fri 07:53:00 51.1613 -38.8484 258° West  Level FlightAware Approximate
Fri 07:54:00 51.1339 -39.0508 258° West  Level FlightAware Approximate
Fri 07:55:00 51.1060 -39.2534 258° West  Level FlightAware Approximate
Fri 07:56:00 51.0778 -39.4557 258° West  Level FlightAware Approximate
Fri 07:57:00 51.0493 -39.6577 257° West  Level FlightAware Approximate
Fri 07:58:00 51.0204 -39.8595 257° West  Level FlightAware Approximate
Fri 07:59:00 50.9962 -40.0624 264° West  Level FlightAware Approximate
Fri 08:00:00 50.9832 -40.2681 264° West  Level FlightAware Approximate
Fri 08:01:00 50.9700 -40.4738 264° West  Level FlightAware Approximate
Fri 08:02:00 50.9563 -40.6792 264° West  Level FlightAware Approximate
Fri 08:03:00 50.9424 -40.8846 264° West  Level FlightAware Approximate
Fri 08:04:00 50.9280 -41.0899 264° West  Level FlightAware Approximate
Fri 08:05:00 50.9133 -41.2950 264° West  Level FlightAware Approximate
Fri 08:06:00 50.8982 -41.5000 263° West  Level FlightAware Approximate
Fri 08:07:00 50.8828 -41.7049 263° West  Level FlightAware Approximate
Fri 08:08:00 50.8670 -41.9096 263° West  Level FlightAware Approximate
Fri 08:09:00 50.8509 -42.1142 263° West  Level FlightAware Approximate
Fri 08:10:00 50.8344 -42.3186 263° West  Level FlightAware Approximate
Fri 08:11:00 50.8175 -42.5229 263° West  Level FlightAware Approximate
Fri 08:12:00 50.8017 -42.7274 263° West  Level FlightAware Approximate
Fri 08:13:00 50.7856 -42.9317 263° West  Level FlightAware Approximate
Fri 08:14:00 50.7692 -43.1358 263° West  Level FlightAware Approximate
Fri 08:15:00 50.7524 -43.3399 263° West  Level FlightAware Approximate
Fri 08:16:00 50.7352 -43.5437 263° West  Level FlightAware Approximate
Fri 08:17:00 50.7177 -43.7475 262° West  Level FlightAware Approximate
Fri 08:18:00 50.6998 -43.9510 262° West  Level FlightAware Approximate
Fri 08:19:00 50.6816 -44.1544 262° West  Level FlightAware Approximate
Fri 08:20:00 50.6630 -44.3577 262° West  Level FlightAware Approximate
Fri 08:21:00 50.6441 -44.5608 262° West  Level FlightAware Approximate
Fri 08:22:00 50.6248 -44.7637 262° West  Level FlightAware Approximate
Fri 08:23:00 50.6051 -44.9665 261° West  Level FlightAware Approximate
Fri 08:24:00 50.5852 -45.1691 261° West  Level FlightAware Approximate
Fri 08:25:00 50.5648 -45.3715 261° West  Level FlightAware Approximate
Fri 08:26:00 50.5441 -45.5737 261° West  Level FlightAware Approximate
Fri 08:27:00 50.5231 -45.7758 261° West  Level FlightAware Approximate
Fri 08:28:00 50.5017 -45.9776 261° West  Level FlightAware Approximate
Fri 08:29:00 50.4800 -46.1793 260° West  Level FlightAware Approximate
Fri 08:30:00 50.4579 -46.3809 260° West  Level FlightAware Approximate
Fri 08:31:00 50.4354 -46.5822 260° West  Level FlightAware Approximate
Fri 08:32:00 50.4127 -46.7833 260° West  Level FlightAware Approximate
Fri 08:33:00 50.3895 -46.9842 260° West  Level FlightAware Approximate
Fri 08:34:00 50.3661 -47.1850 260° West  Level FlightAware Approximate
Fri 08:35:00 50.3422 -47.3855 260° West  Level FlightAware Approximate
Fri 08:36:00 50.3181 -47.5858 259° West  Level FlightAware Approximate
Fri 08:37:00 50.2936 -47.7859 259° West  Level FlightAware Approximate
Fri 08:37:44 50.0333 -49.7000 258° West 520 962 33,000  Level Gander Center
Fri 08:38:00 50.2687 -47.9859 259° West  Level FlightAware Approximate
Fri 08:38:45 50.0167 -49.9167 263° West 510 945 33,000  Level Gander Center
Fri 08:39:00 50.2435 -48.1856 259° West  Level FlightAware Approximate
Fri 08:39:13 49.9833 -50.0000 238° Southwest 510 945 33,000  Level Moncton Center
Fri 08:39:45 49.9667 -50.1333 259° West 510 945 33,000  Level Gander Center
Fri 08:40:00 50.2180 -48.3851 259° West  Level FlightAware Approximate
Fri 08:41:00 50.1921 -48.5843 259° West  Level FlightAware Approximate
Fri 08:42:00 50.1654 -48.7868 258° West  Level FlightAware Approximate
Fri 08:43:00 50.1384 -48.9891 258° West  Level FlightAware Approximate
Fri 08:45:47 49.7540 -51.4990 259° West 527 975 33,000  Level FlightAware ADS-B
Fri 08:46:27 49.7270 -51.6430 254° West 527 975 33,000  Level FlightAware ADS-B
Fri 08:47:12 49.6990 -51.7960 254° West 528 978 33,000  Level FlightAware ADS-B
Fri 08:47:52 49.6710 -51.9470 254° West 528 978 33,000  Level FlightAware ADS-B
Fri 08:48:37 49.6400 -52.1140 254° West 527 975 33,000  Level FlightAware ADS-B
Fri 08:49:17 49.6120 -52.2580 253° West 527 975 33,000  Level FlightAware ADS-B
Fri 08:49:57 49.5840 -52.4050 254° West 528 978 33,000  Level FlightAware ADS-B
Fri 08:50:42 49.5570 -52.5490 254° West 528 978 33,000  Level FlightAware ADS-B
Fri 08:51:22 49.5280 -52.6980 253° West 529 980 33,000  Level FlightAware ADS-B
Fri 08:52:07 49.4970 -52.8580 253° West 528 978 33,000  Level FlightAware ADS-B
Fri 08:52:37 49.4760 -52.9640 253° West 528 978 33,000  Level FlightAware ADS-B
Fri 08:53:17 49.4470 -53.1080 253° West 528 978 33,000  Level FlightAware ADS-B
Fri 08:53:57 49.4180 -53.2520 253° West 528 978 33,000  Level FlightAware ADS-B
Fri 08:54:42 49.3860 -53.4150 253° West 529 980 33,000 141 Level FlightAware ADS-B
Fri 08:55:22 49.3570 -53.5560 253° West 526 974 33,200 450 Climbing FlightAware ADS-B
Fri 08:56:02 49.3290 -53.6940 253° West 524 970 33,600 424 Climbing FlightAware ADS-B
Fri 08:56:47 49.3040 -53.8150 252° West 524 970 33,800 494 Climbing FlightAware ADS-B
Fri 08:57:27 49.2640 -54.0080 252° West 527 975 34,300 565 Climbing FlightAware ADS-B
Fri 08:58:12 49.2300 -54.1700 252° West 528 978 34,600 494 Climbing FlightAware ADS-B
Fri 08:58:52 49.2010 -54.3110 253° West 526 974 35,000 300 Climbing FlightAware ADS-B
Fri 08:59:32 49.1710 -54.4520 252° West 526 974 35,000  Level FlightAware ADS-B
Fri 09:00:17 49.1370 -54.6090 252° West 525 972 35,000  Level FlightAware ADS-B
Fri 09:00:57 49.1070 -54.7510 252° West 527 975 35,000  Level FlightAware ADS-B
Fri 09:01:42 49.0720 -54.9100 251° West 525 972 35,000  Level FlightAware ADS-B
Fri 09:02:22 49.0420 -55.0490 252° West 522 967 35,000  Level FlightAware ADS-B
Fri 09:03:02 49.0120 -55.1880 252° West 523 969 35,000  Level FlightAware ADS-B
Fri 09:03:47 48.9770 -55.3450 251° West 523 969 35,000  Level FlightAware ADS-B
Fri 09:04:27 48.9460 -55.4820 251° West 522 967 35,000  Level FlightAware ADS-B
Fri 09:05:12 48.9110 -55.6390 251° West 519 961 35,000  Level FlightAware ADS-B
Fri 09:05:52 48.8800 -55.7770 251° West 518 959 35,000  Level FlightAware ADS-B
Fri 09:06:37 48.8450 -55.9310 251° West 518 959 35,000  Level FlightAware ADS-B
Fri 09:07:17 48.8130 -56.0680 251° West 519 961 35,000  Level FlightAware ADS-B
Fri 09:07:57 48.7820 -56.2060 251° West 518 959 35,000  Level FlightAware ADS-B
Fri 09:08:42 48.7460 -56.3600 251° West 517 958 35,000  Level FlightAware ADS-B
Fri 09:09:22 48.7150 -56.4940 251° West 518 959 35,000  Level FlightAware ADS-B
Fri 09:10:07 48.6800 -56.6410 250° West 517 958 35,000  Level FlightAware ADS-B
Fri 09:10:47 48.6470 -56.7830 251° West 517 958 35,000  Level FlightAware ADS-B
Fri 09:11:22 48.6180 -56.9040 250° West 517 958 35,000  Level FlightAware ADS-B
Fri 09:12:07 48.5820 -57.0530 250° West 518 959 35,000  Level FlightAware ADS-B
Fri 09:12:42 48.5530 -57.1740 250° West 518 959 35,000  Level FlightAware ADS-B
Fri 09:13:37 48.5090 -57.3560 250° West 517 958 35,000  Level FlightAware ADS-B
Fri 09:14:12 48.4810 -57.4680 249° West 514 953 35,000  Level FlightAware ADS-B
Fri 09:14:57 48.4360 -57.6260 247° West 511 946 35,000  Level FlightAware ADS-B
Fri 09:15:42 48.3960 -57.7590 246° West 508 941 35,000  Level FlightAware ADS-B
Fri 09:16:22 48.3580 -57.8830 245° Southwest 506 937 35,000  Level FlightAware ADS-B
Fri 09:17:02 48.3150 -58.0200 245° Southwest 506 937 35,000  Level FlightAware ADS-B
Fri 09:17:47 48.2680 -58.1680 245° Southwest 506 937 35,000  Level FlightAware ADS-B
Fri 09:18:32 48.2250 -58.3040 245° Southwest 509 943 35,000  Level FlightAware ADS-B
Fri 09:19:22 48.1760 -58.4590 245° Southwest 508 941 35,000  Level FlightAware ADS-B
Fri 09:20:22 48.1160 -58.6440 244° Southwest 507 938 35,000  Level FlightAware ADS-B
Fri 09:21:02 48.0710 -58.7850 245° Southwest 505 935 35,000  Level FlightAware ADS-B
Fri 09:21:42 48.0360 -58.8950 245° Southwest 502 930 35,000  Level FlightAware ADS-B
Fri 09:22:27 47.9960 -59.0170 244° Southwest 502 930 35,000  Level FlightAware ADS-B
Fri 09:23:02 47.9560 -59.1400 244° Southwest 502 930 35,000  Level FlightAware ADS-B
Fri 09:23:42 47.9220 -59.2460 244° Southwest 502 930 35,000  Level FlightAware ADS-B
Fri 09:24:32 47.8790 -59.3780 244° Southwest 502 930 35,000  Level FlightAware ADS-B
Fri 09:25:12 47.8440 -59.4840 244° Southwest 502 930 35,000  Level FlightAware ADS-B
Fri 09:25:52 47.8090 -59.5900 244° Southwest 502 930 35,000  Level FlightAware ADS-B
Fri 09:26:32 47.7750 -59.6950 244° Southwest 502 930 35,000  Level FlightAware ADS-B
Fri 09:27:12 47.7400 -59.8010 244° Southwest 502 930 35,000  Level FlightAware ADS-B
Fri 09:28:02 47.6970 -59.9330 244° Southwest 502 930 35,000  Level FlightAware ADS-B
Fri 09:28:42 47.6620 -60.0380 244° Southwest 502 930 35,000  Level FlightAware ADS-B
Fri 09:29:22 47.6270 -60.1430 244° Southwest 502 930 35,000  Level FlightAware ADS-B
Fri 09:30:02 47.5930 -60.2490 245° Southwest 502 930 35,000  Level FlightAware ADS-B
Fri 09:30:42 47.5580 -60.3540 244° Southwest 502 930 35,000  Level FlightAware ADS-B
Fri 09:31:32 47.5150 -60.4850 244° Southwest 502 930 35,000  Level FlightAware ADS-B
Fri 09:32:12 47.4800 -60.5900 244° Southwest 502 930 35,000  Level FlightAware ADS-B
Fri 09:33:07 47.3190 -61.0250 241° Southwest 505 935 35,000  Level FlightAware ADS-B
Fri 09:33:47 47.2760 -61.1450 242° Southwest 505 935 35,000  Level FlightAware ADS-B
Fri 09:34:32 47.2310 -61.2740 243° Southwest 504 933 35,000  Level FlightAware ADS-B
Fri 09:35:17 47.1800 -61.4170 242° Southwest 506 937 35,000  Level FlightAware ADS-B
Fri 09:36:12 47.1220 -61.5770 242° Southwest 508 941 35,000  Level FlightAware ADS-B
Fri 09:36:52 47.0850 -61.6810 242° Southwest 508 941 35,000  Level FlightAware ADS-B
Fri 09:37:32 47.0470 -61.7840 242° Southwest 508 941 35,000  Level FlightAware ADS-B
Fri 09:38:12 47.0100 -61.8880 242° Southwest 508 941 35,000  Level FlightAware ADS-B
Fri 09:38:52 46.9720 -61.9910 242° Southwest 508 941 35,000  Level FlightAware ADS-B
Fri 09:39:42 46.9250 -62.1200 242° Southwest 508 941 35,000  Level FlightAware ADS-B
Fri 09:40:22 46.8880 -62.2240 243° Southwest 508 941 35,000  Level FlightAware ADS-B
Fri 09:41:02 46.8500 -62.3270 242° Southwest 508 941 35,000  Level FlightAware ADS-B
Fri 09:41:42 46.8130 -62.4300 242° Southwest 508 941 35,000  Level FlightAware ADS-B
Fri 09:42:22 46.7750 -62.5330 242° Southwest 508 941 35,000  Level FlightAware ADS-B
Fri 09:43:12 46.7280 -62.6620 242° Southwest 508 941 35,000  Level FlightAware ADS-B
Fri 09:43:52 46.6910 -62.7650 242° Southwest 508 941 35,000  Level FlightAware ADS-B
Fri 09:44:32 46.6530 -62.8680 242° Southwest 508 941 35,000  Level FlightAware ADS-B
Fri 09:45:12 46.6160 -62.9700 242° Southwest 508 941 35,000  Level FlightAware ADS-B
Fri 09:45:44 46.4833 -63.2667 242° Southwest 500 925 35,000  Level Gander Center
Fri 09:46:13 46.4333 -63.3500 229° Southwest 500 925 35,000  Level Moncton Center
Fri 09:51:32 46.0870 -64.3200 229° Southwest 507 938 35,000  Level FlightAware ADS-B
Fri 09:52:12 46.0440 -64.4280 240° Southwest 510 945 35,000  Level FlightAware ADS-B
Fri 09:52:57 45.9960 -64.5480 240° Southwest 510 945 35,000  Level FlightAware ADS-B
Fri 09:53:42 45.9350 -64.7020 240° Southwest 513 950 35,000  Level FlightAware ADS-B
Fri 09:54:22 45.8890 -64.8170 240° Southwest 512 948 35,000  Level FlightAware ADS-B
Fri 09:55:02 45.8440 -64.9270 240° Southwest 513 950 35,000  Level FlightAware ADS-B
Fri 09:55:47 45.7890 -65.0630 240° Southwest 514 953 35,000  Level FlightAware ADS-B
Fri 09:56:27 45.7400 -65.1830 240° Southwest 516 956 35,000  Level FlightAware ADS-B
Fri 09:57:12 45.6840 -65.3180 239° Southwest 518 959 35,000  Level FlightAware ADS-B
Fri 09:57:52 45.6350 -65.4360 239° Southwest 520 962 35,000  Level FlightAware ADS-B
Fri 09:58:32 45.5870 -65.5540 240° Southwest 519 961 35,000  Level FlightAware ADS-B
Fri 09:59:17 45.5330 -65.6830 239° Southwest 521 966 35,000  Level FlightAware ADS-B
Fri 09:59:57 45.4840 -65.8020 240° Southwest 525 972 35,000  Level FlightAware ADS-B
Fri 10:00:37 45.4340 -65.9210 239° Southwest 527 975 35,000  Level FlightAware ADS-B
Fri 10:01:27 45.3700 -66.0710 239° Southwest 531 983 35,000  Level FlightAware ADS-B
Fri 10:02:07 45.3200 -66.1910 239° Southwest 535 991 35,000  Level FlightAware ADS-B
Fri 10:02:47 45.2660 -66.3160 238° Southwest 536 993 35,000  Level FlightAware ADS-B
Fri 10:03:27 45.2160 -66.4340 239° Southwest 538 996 35,000  Level FlightAware ADS-B
Fri 10:04:12 45.1580 -66.5680 238° Southwest 540 999 35,000  Level FlightAware ADS-B
Fri 10:05:07 45.0880 -66.7320 239° Southwest 540 999 35,000  Level FlightAware ADS-B
Fri 10:06:07 45.0090 -66.9130 238° Southwest 542 1004 35,000  Level FlightAware ADS-B
Fri 10:06:47 44.9600 -67.0250 238° Southwest 541 1003 35,000  Level FlightAware ADS-B
Fri 10:07:27 44.9060 -67.1560 240° Southwest 538 996 35,000  Level FlightAware ADS-B
Fri 10:08:12 44.8640 -67.3010 248° West 531 983 35,000  Level FlightAware ADS-B
Fri 10:08:52 44.8410 -67.4380 257° West 524 970 35,000  Level FlightAware ADS-B
Fri 10:09:32 44.8210 -67.5680 258° West 522 967 35,000  Level FlightAware ADS-B
Fri 10:10:17 44.7980 -67.7210 258° West 523 969 35,000  Level FlightAware ADS-B
Fri 10:10:57 44.7790 -67.8470 258° West 523 969 35,000  Level FlightAware ADS-B
Fri 10:11:42 44.7550 -68.0010 258° West 523 969 35,000  Level FlightAware ADS-B
Fri 10:12:22 44.7340 -68.1340 258° West 524 970 35,000  Level FlightAware ADS-B
Fri 10:13:02 44.7140 -68.2680 258° West 522 967 35,000  Level FlightAware ADS-B
Fri 10:13:47 44.6910 -68.4110 257° West 520 962 35,000  Level FlightAware ADS-B
Fri 10:14:27 44.6700 -68.5440 258° West 516 956 35,000  Level FlightAware ADS-B
Fri 10:15:12 44.6470 -68.6920 258° West 513 950 35,000  Level FlightAware ADS-B
Fri 10:15:52 44.6250 -68.8230 257° West 513 950 35,000  Level FlightAware ADS-B
Fri 10:16:37 44.6020 -68.9660 257° West 513 950 35,000  Level FlightAware ADS-B
Fri 10:17:17 44.5800 -69.0980 257° West 511 946 35,000  Level FlightAware ADS-B
Fri 10:17:57 44.5620 -69.2110 257° West 512 948 35,000  Level FlightAware ADS-B
Fri 10:18:42 44.5350 -69.3720 257° West 512 948 35,000  Level FlightAware ADS-B
Fri 10:19:17 44.5180 -69.4760 257° West 512 948 35,000  Level FlightAware ADS-B
Fri 10:20:07 44.4910 -69.6360 257° West 512 948 35,000  Level FlightAware ADS-B
Fri 10:20:47 44.4670 -69.7730 256° West 512 948 35,000  Level FlightAware ADS-B
Fri 10:21:27 44.4460 -69.9000 257° West 513 950 35,000  Level FlightAware ADS-B
Fri 10:22:12 44.4200 -70.0460 256° West 513 950 35,000 71 Level FlightAware ADS-B
Fri 10:22:52 44.3980 -70.1740 257° West 512 948 35,100 282 Climbing FlightAware ADS-B
Fri 10:23:37 44.3730 -70.3170 256° West 511 946 35,400 424 Climbing FlightAware ADS-B
Fri 10:24:17 44.3500 -70.4460 256° West 507 938 35,700 375 Climbing FlightAware ADS-B
Fri 10:24:57 44.3270 -70.5740 256° West 504 933 35,900 212 Climbing FlightAware ADS-B
Fri 10:25:42 44.3020 -70.7160 256° West 504 933 36,000 71 Climbing FlightAware ADS-B
Fri 10:26:22 44.2800 -70.8380 256° West 504 933 36,000  Level FlightAware ADS-B
Fri 10:27:07 44.2530 -70.9820 255° West 502 930 36,000  Level FlightAware ADS-B
Fri 10:27:47 44.2300 -71.1080 256° West 502 930 36,000  Level FlightAware ADS-B
Fri 10:28:27 44.2070 -71.2340 256° West 500 925 36,000  Level FlightAware ADS-B
Fri 10:29:12 44.1810 -71.3720 255° West 501 929 36,000  Level FlightAware ADS-B
Fri 10:29:52 44.1580 -71.4950 255° West 501 929 36,000  Level FlightAware ADS-B
Fri 10:30:37 44.1310 -71.6400 256° West 499 924 36,000  Level FlightAware ADS-B
Fri 10:31:17 44.1070 -71.7640 255° West 498 922 36,000  Level FlightAware ADS-B
Fri 10:31:57 44.0850 -71.8800 255° West 494 914 36,000  Level FlightAware ADS-B
Fri 10:32:42 44.0580 -72.0210 255° West 495 917 36,000  Level FlightAware ADS-B
Fri 10:33:22 44.0340 -72.1450 255° West 495 917 36,000  Level FlightAware ADS-B
Fri 10:34:02 44.0100 -72.2690 255° West 495 917 36,000  Level FlightAware ADS-B
Fri 10:34:47 43.9830 -72.4050 255° West 493 912 36,000  Level FlightAware ADS-B
Fri 10:35:27 43.9590 -72.5270 255° West 493 912 36,000  Level FlightAware ADS-B
Fri 10:36:12 43.9320 -72.6610 254° West 494 914 36,000  Level FlightAware ADS-B
Fri 10:36:52 43.9080 -72.7830 255° West 494 914 36,000  Level FlightAware ADS-B
Fri 10:37:37 43.8800 -72.9190 254° West 493 912 36,000  Level FlightAware ADS-B
Fri 10:38:17 43.8550 -73.0450 255° West 492 911 36,000  Level FlightAware ADS-B
Fri 10:38:57 43.8300 -73.1660 254° West 491 909 36,000  Level FlightAware ADS-B
Fri 10:39:42 43.8030 -73.3000 254° West 492 911 36,000  Level FlightAware ADS-B
Fri 10:40:17 43.7820 -73.4020 254° West 491 909 36,000  Level FlightAware ADS-B
Fri 10:41:07 43.7490 -73.5590 254° West 490 908 36,000  Level FlightAware ADS-B
Fri 10:41:47 43.7240 -73.6780 254° West 489 906 36,000  Level FlightAware ADS-B
Fri 10:42:27 43.6990 -73.7980 254° West 490 908 36,000  Level FlightAware ADS-B
Fri 10:43:12 43.6710 -73.9300 254° West 489 906 36,000  Level FlightAware ADS-B
Fri 10:43:52 43.6450 -74.0520 254° West 488 904 36,000  Level FlightAware ADS-B
Fri 10:44:32 43.6200 -74.1700 254° West 488 904 36,000  Level FlightAware ADS-B
Fri 10:45:12 43.5960 -74.2780 253° West 487 901 36,000  Level FlightAware ADS-B
Fri 10:45:57 43.5640 -74.4240 253° West 484 896 36,000  Level FlightAware ADS-B
Fri 10:46:37 43.5390 -74.5430 254° West 484 896 36,000  Level FlightAware ADS-B
Fri 10:47:22 43.5100 -74.6710 253° West 484 896 36,000  Level FlightAware ADS-B
Fri 10:48:02 43.4850 -74.7880 254° West 485 898 36,000  Level FlightAware ADS-B
Fri 10:48:47 43.4550 -74.9240 253° West 487 901 36,000  Level FlightAware ADS-B
Fri 10:49:32 43.4290 -75.0380 253° West 488 904 36,000  Level FlightAware ADS-B
Fri 10:50:12 43.4020 -75.1590 253° West 487 901 36,000  Level FlightAware ADS-B
Fri 10:50:52 43.3750 -75.2800 253° West 489 906 36,000  Level FlightAware ADS-B
Fri 10:51:37 43.3440 -75.4130 252° West 487 901 36,000  Level FlightAware ADS-B
Fri 10:52:17 43.3180 -75.5300 253° West 485 898 36,000  Level FlightAware ADS-B
Fri 10:52:57 43.2900 -75.6480 252° West 485 898 36,000  Level FlightAware ADS-B
Fri 10:53:42 43.2600 -75.7790 253° West 486 900 36,000  Level FlightAware ADS-B
Fri 10:54:22 43.2320 -75.8990 252° West 487 901 36,000  Level FlightAware ADS-B
Fri 10:55:07 43.2020 -76.0280 252° West 486 900 36,000  Level FlightAware ADS-B
Fri 10:55:47 43.1750 -76.1430 252° West 483 895 36,000  Level FlightAware ADS-B
Fri 10:56:32 43.1380 -76.2740 249° West 484 896 36,000  Level FlightAware ADS-B
Fri 10:57:12 43.1030 -76.3870 247° West 484 896 36,000  Level FlightAware ADS-B
Fri 10:57:52 43.0670 -76.4980 246° West 485 898 36,000  Level FlightAware ADS-B
Fri 10:58:37 43.0270 -76.6240 247° West 485 898 36,000  Level FlightAware ADS-B
Fri 10:59:17 42.9910 -76.7360 246° West 485 898 36,000  Level FlightAware ADS-B
Fri 11:00:02 42.9510 -76.8600 246° West 484 896 36,000  Level FlightAware ADS-B
Fri 11:00:42 42.9150 -76.9710 246° West 482 893 36,000  Level FlightAware ADS-B
Fri 11:01:22 42.8790 -77.0830 246° West 481 892 36,000  Level FlightAware ADS-B
Fri 11:02:07 42.8380 -77.2080 246° West 481 892 36,000  Level FlightAware ADS-B
Fri 11:02:47 42.8020 -77.3180 246° West 483 895 36,000  Level FlightAware ADS-B
Fri 11:03:27 42.7680 -77.4220 246° West 483 895 36,000  Level FlightAware ADS-B
Fri 11:04:12 42.7250 -77.5520 246° West 482 893 36,000  Level FlightAware ADS-B
Fri 11:04:52 42.6870 -77.6650 245° Southwest 482 893 36,000  Level FlightAware ADS-B
Fri 11:05:37 42.6450 -77.7890 245° Southwest 482 893 36,000  Level FlightAware ADS-B
Fri 11:06:17 42.6090 -77.8980 246° West 484 896 36,000  Level FlightAware ADS-B
Fri 11:06:57 42.5720 -78.0080 245° Southwest 484 896 36,000  Level FlightAware ADS-B
Fri 11:07:42 42.5300 -78.1330 246° West 482 893 36,000  Level FlightAware ADS-B
Fri 11:08:22 42.4940 -78.2400 246° West 483 895 36,000  Level FlightAware ADS-B
Fri 11:09:07 42.4510 -78.3650 245° Southwest 483 895 36,000  Level FlightAware ADS-B
Fri 11:09:47 42.4130 -78.4750 245° Southwest 483 895 36,000  Level FlightAware ADS-B
Fri 11:10:27 42.3750 -78.5850 245° Southwest 483 895 36,000  Level FlightAware ADS-B
Fri 11:11:12 42.3350 -78.7000 245° Southwest 483 895 36,000  Level FlightAware ADS-B
Fri 11:11:52 42.2950 -78.8170 245° Southwest 482 893 36,000  Level FlightAware ADS-B
Fri 11:12:37 42.2540 -78.9350 245° Southwest 481 892 36,000  Level FlightAware ADS-B
Fri 11:13:17 42.2140 -79.0480 244° Southwest 480 888 36,000  Level FlightAware ADS-B
Fri 11:13:57 42.1800 -79.1580 247° West 480 888 36,000  Level FlightAware ADS-B
Fri 11:14:42 42.1470 -79.2830 250° West 480 888 36,000  Level FlightAware ADS-B
Fri 11:15:22 42.1170 -79.3970 251° West 480 888 36,000  Level FlightAware ADS-B
Fri 11:16:07 42.0850 -79.5210 251° West 479 887 36,000  Level FlightAware ADS-B
Fri 11:16:47 42.0570 -79.6300 251° West 480 888 36,000  Level FlightAware ADS-B
Fri 11:17:27 42.0260 -79.7480 251° West 480 888 36,000  Level FlightAware ADS-B
Fri 11:18:12 41.9930 -79.8710 250° West 479 887 36,000  Level FlightAware ADS-B
Fri 11:18:52 41.9630 -79.9850 251° West 478 885 36,000  Level FlightAware ADS-B
Fri 11:19:32 41.9330 -80.0990 251° West 477 884 36,000  Level FlightAware ADS-B
Fri 11:20:17 41.8990 -80.2230 250° West 475 880 36,000  Level FlightAware ADS-B
Fri 11:20:57 41.8700 -80.3320 250° West 474 877 36,000  Level FlightAware ADS-B
Fri 11:21:42 41.8370 -80.4550 250° West 472 874 36,000  Level FlightAware ADS-B
Fri 11:22:22 41.8070 -80.5650 250° West 472 874 36,000  Level FlightAware ADS-B
Fri 11:23:07 41.7720 -80.6910 250° West 472 874 36,000  Level FlightAware ADS-B
Fri 11:23:47 41.7440 -80.7960 250° West 471 872 36,000  Level FlightAware ADS-B
Fri 11:24:27 41.7130 -80.9080 250° West 468 867 36,000  Level FlightAware ADS-B
Fri 11:25:12 41.6780 -81.0330 249° West 466 863 36,000  Level FlightAware ADS-B
Fri 11:25:52 41.6490 -81.1390 250° West 467 864 36,000  Level FlightAware ADS-B
Fri 11:26:32 41.6150 -81.2590 249° West 467 864 36,000  Level FlightAware ADS-B
Fri 11:27:17 41.5820 -81.3780 250° West 468 867 36,000  Level FlightAware ADS-B
Fri 11:27:57 41.5510 -81.4870 249° West 468 867 36,000  Level FlightAware ADS-B
Fri 11:28:42 41.5160 -81.6100 249° West 468 867 36,000  Level FlightAware ADS-B
Fri 11:29:22 41.4860 -81.7170 250° West 467 864 36,000  Level FlightAware ADS-B
Fri 11:30:07 41.4520 -81.8370 249° West 466 863 36,000  Level FlightAware ADS-B
Fri 11:30:47 41.4240 -81.9350 249° West 465 861 36,000  Level FlightAware ADS-B
Fri 11:31:27 41.3910 -82.0490 249° West 465 861 36,000  Level FlightAware ADS-B
Fri 11:32:12 41.3520 -82.1680 246° West 464 859 36,000  Level FlightAware ADS-B
Fri 11:32:52 41.3050 -82.2580 235° Southwest 465 861 36,000  Level FlightAware ADS-B
Fri 11:33:37 41.2470 -82.3620 233° Southwest 466 863 36,000  Level FlightAware ADS-B
Fri 11:34:17 41.1950 -82.4560 234° Southwest 466 863 36,000  Level FlightAware ADS-B
Fri 11:34:52 41.1490 -82.5380 233° Southwest 463 858 36,000  Level FlightAware ADS-B
Fri 11:35:42 41.0860 -82.6510 234° Southwest 462 856 36,000  Level FlightAware ADS-B
Fri 11:36:22 41.0370 -82.7390 234° Southwest 463 858 36,000  Level FlightAware ADS-B
Fri 11:37:07 40.9810 -82.8390 233° Southwest 461 855 36,000  Level FlightAware ADS-B
Fri 11:37:47 40.9260 -82.9360 233° Southwest 460 851 36,000  Level FlightAware ADS-B
Fri 11:38:22 40.8840 -83.0100 233° Southwest 459 850 36,000  Level FlightAware ADS-B
Fri 11:39:12 40.8180 -83.1260 233° Southwest 460 851 36,000  Level FlightAware ADS-B
Fri 11:39:52 40.7680 -83.2130 233° Southwest 462 856 36,000  Level FlightAware ADS-B
Fri 11:40:37 40.7090 -83.3160 233° Southwest 461 855 36,000  Level FlightAware ADS-B
Fri 11:41:17 40.6590 -83.4040 233° Southwest 462 856 36,000  Level FlightAware ADS-B
Fri 11:41:57 40.6060 -83.4960 233° Southwest 460 851 36,000  Level FlightAware ADS-B
Fri 11:42:42 40.5470 -83.5970 232° Southwest 459 850 36,000  Level FlightAware ADS-B
Fri 11:43:22 40.4990 -83.6810 233° Southwest 456 845 36,000  Level FlightAware ADS-B
Fri 11:44:07 40.4400 -83.7830 233° Southwest 453 838 36,000  Level FlightAware ADS-B
Fri 11:44:47 40.3890 -83.8710 233° Southwest 453 838 36,000  Level FlightAware ADS-B
Fri 11:45:27 40.3400 -83.9530 232° Southwest 453 838 36,000  Level FlightAware ADS-B
Fri 11:46:12 40.2810 -84.0540 233° Southwest 455 843 36,000  Level FlightAware ADS-B
Fri 11:46:52 40.2280 -84.1370 230° Southwest 455 843 36,000  Level FlightAware ADS-B
Fri 11:47:47 40.1540 -84.2500 229° Southwest 454 840 36,000  Level FlightAware ADS-B
Fri 11:48:32 40.0930 -84.3440 230° Southwest 453 838 36,000  Level FlightAware ADS-B
Fri 11:49:12 40.0380 -84.4290 230° Southwest 454 840 36,000  Level FlightAware ADS-B
Fri 11:50:07 39.9610 -84.5470 230° Southwest 453 838 36,000  Level FlightAware ADS-B
Fri 11:50:52 39.9020 -84.6380 230° Southwest 454 840 36,000  Level FlightAware ADS-B
Fri 11:51:32 39.8480 -84.7130 227° Southwest 453 838 36,000  Level FlightAware ADS-B
Fri 11:52:17 39.7860 -84.7970 226° Southwest 453 838 36,000  Level FlightAware ADS-B
Fri 11:52:57 39.7230 -84.8850 227° Southwest 453 838 36,000  Level FlightAware ADS-B
Fri 11:53:37 39.6650 -84.9650 227° Southwest 454 840 36,000  Level FlightAware ADS-B
Fri 11:54:22 39.6010 -85.0540 227° Southwest 455 843 36,000  Level FlightAware ADS-B
Fri 11:55:02 39.5430 -85.1340 227° Southwest 455 843 36,000  Level FlightAware ADS-B
Fri 11:55:42 39.4860 -85.2160 228° Southwest 455 843 36,000  Level FlightAware ADS-B
Fri 11:56:27 39.4210 -85.3090 228° Southwest 456 845 36,000  Level FlightAware ADS-B
Fri 11:57:12 39.3590 -85.3980 228° Southwest 458 848 36,000  Level FlightAware ADS-B
Fri 11:57:52 39.3000 -85.4720 224° Southwest 455 843 36,000  Level FlightAware ADS-B
Fri 11:58:32 39.2330 -85.5400 218° Southwest 455 843 36,000  Level FlightAware ADS-B
Fri 11:59:17 39.1600 -85.6140 218° Southwest 455 843 36,000  Level FlightAware ADS-B
Fri 11:59:57 39.0910 -85.6830 218° Southwest 454 840 36,000  Level FlightAware ADS-B
Fri 12:00:42 39.0180 -85.7570 218° Southwest 455 843 36,000  Level FlightAware ADS-B
Fri 12:01:22 38.9520 -85.8240 218° Southwest 455 843 36,000  Level FlightAware ADS-B
Fri 12:02:02 38.8840 -85.8930 218° Southwest 455 843 36,000  Level FlightAware ADS-B
Fri 12:02:47 38.8100 -85.9690 219° Southwest 455 843 36,000  Level FlightAware ADS-B
Fri 12:03:27 38.7450 -86.0370 219° Southwest 453 838 36,000  Level FlightAware ADS-B
Fri 12:04:12 38.6740 -86.1130 220° Southwest 451 835 36,000  Level FlightAware ADS-B
Fri 12:04:37 38.6380 -86.1650 228° Southwest 460 851 36,000  Level FlightAware ADS-B
Fri 12:05:22 38.5940 -86.2690 242° Southwest 466 863 36,000  Level FlightAware ADS-B
Fri 12:06:02 38.5550 -86.3700 244° Southwest 469 869 36,000  Level FlightAware ADS-B
Fri 12:06:42 38.5200 -86.4710 246° West 470 871 36,000  Level FlightAware ADS-B
Fri 12:07:27 38.4800 -86.5840 246° West 470 871 36,000  Level FlightAware ADS-B
Fri 12:08:07 38.4470 -86.6770 246° West 471 872 36,000  Level FlightAware ADS-B
Fri 12:08:52 38.4060 -86.7940 246° West 472 874 36,000  Level FlightAware ADS-B
Fri 12:09:32 38.3670 -86.9020 245° Southwest 472 874 36,000  Level FlightAware ADS-B
Fri 12:10:12 38.3320 -87.0000 246° West 472 874 36,000  Level FlightAware ADS-B
Fri 12:10:57 38.2910 -87.1130 245° Southwest 472 874 36,000  Level FlightAware ADS-B
Fri 12:11:37 38.2530 -87.2190 245° Southwest 471 872 36,000  Level FlightAware ADS-B
Fri 12:12:22 38.2120 -87.3300 245° Southwest 469 869 36,000  Level FlightAware ADS-B
Fri 12:13:02 38.1750 -87.4330 245° Southwest 471 872 36,000  Level FlightAware ADS-B
Fri 12:13:42 38.1390 -87.5310 245° Southwest 472 874 36,000  Level FlightAware ADS-B
Fri 12:14:22 38.1030 -87.6300 245° Southwest 472 874 36,000  Level FlightAware ADS-B
Fri 12:15:07 38.0610 -87.7450 245° Southwest 472 874 36,000  Level FlightAware ADS-B
Fri 12:15:52 38.0200 -87.8550 245° Southwest 470 871 36,000  Level FlightAware ADS-B
Fri 12:16:17 37.9960 -87.9190 245° Southwest 469 869 36,000  Level FlightAware ADS-B
Fri 12:16:57 37.9600 -88.0170 245° Southwest 468 867 36,000  Level FlightAware ADS-B
Fri 12:17:42 37.9180 -88.1310 245° Southwest 468 867 36,000  Level FlightAware ADS-B
Fri 12:18:22 37.8810 -88.2290 244° Southwest 470 871 36,000  Level FlightAware ADS-B
Fri 12:19:07 37.8400 -88.3370 244° Southwest 471 872 36,000  Level FlightAware ADS-B
Fri 12:19:47 37.8020 -88.4390 245° Southwest 473 875 36,000  Level FlightAware ADS-B
Fri 12:20:27 37.7650 -88.5370 244° Southwest 470 871 36,000  Level FlightAware ADS-B
Fri 12:21:12 37.7220 -88.6510 245° Southwest 467 864 36,000  Level FlightAware ADS-B
Fri 12:21:52 37.6850 -88.7470 244° Southwest 469 869 36,000  Level FlightAware ADS-B
Fri 12:22:37 37.6430 -88.8580 244° Southwest 470 871 36,000  Level FlightAware ADS-B
Fri 12:23:07 37.6180 -88.9250 245° Southwest 470 871 36,000  Level FlightAware ADS-B
Fri 12:24:02 37.5700 -89.0480 244° Southwest 470 871 36,000  Level FlightAware ADS-B
Fri 12:24:32 37.5340 -89.1410 244° Southwest 467 864 36,000  Level FlightAware ADS-B
Fri 12:25:17 37.4970 -89.2370 244° Southwest 467 864 36,000  Level FlightAware ADS-B
Fri 12:26:07 37.4570 -89.3410 244° Southwest 467 864 36,000  Level FlightAware ADS-B
Fri 12:26:47 37.4250 -89.4240 244° Southwest 467 864 36,000  Level FlightAware ADS-B
Fri 12:27:27 37.3930 -89.5070 244° Southwest 467 864 36,000  Level FlightAware ADS-B
Fri 12:28:07 37.3600 -89.5900 243° Southwest 467 864 36,000  Level FlightAware ADS-B
Fri 12:28:47 37.3280 -89.6730 244° Southwest 467 864 36,000  Level FlightAware ADS-B
Fri 12:29:37 37.2880 -89.7770 244° Southwest 467 864 36,000  Level FlightAware ADS-B
Fri 12:30:17 37.2560 -89.8600 244° Southwest 467 864 36,000  Level FlightAware ADS-B
Fri 12:30:57 37.2230 -89.9430 243° Southwest 467 864 36,000  Level FlightAware ADS-B
Fri 12:31:37 37.1910 -90.0260 244° Southwest 467 864 36,000  Level FlightAware ADS-B
Fri 12:32:17 37.1590 -90.1090 244° Southwest 467 864 36,000  Level FlightAware ADS-B
Fri 12:32:57 37.1270 -90.1920 244° Southwest 467 864 36,000  Level FlightAware ADS-B
Fri 12:33:47 37.0870 -90.2950 244° Southwest 467 864 36,000  Level FlightAware ADS-B
Fri 12:34:27 37.0540 -90.3780 244° Southwest 467 864 36,000  Level FlightAware ADS-B
Fri 12:35:04 36.9344 -90.6608 244° Southwest 475 880 36,000  Level Kansas City Center
Fri 12:36:06 36.8625 -90.8369 243° Southwest 476 882 36,000  Level Kansas City Center
Fri 12:37:08 36.8011 -90.9944 244° Southwest 469 869 36,000  Level Memphis Center
Fri 12:38:08 36.7461 -91.1181 241° Southwest 469 869 36,000  Level Memphis Center
Fri 12:39:08 36.6869 -91.2678 244° Southwest 469 869 36,000  Level Memphis Center
Fri 12:40:08 36.6253 -91.4119 242° Southwest 474 877 36,000  Level Memphis Center
Fri 12:41:08 36.5656 -91.5583 243° Southwest 474 877 36,000  Level Memphis Center
Fri 12:42:08 36.4994 -91.7175 243° Southwest 469 869 36,000  Level Memphis Center
Fri 12:43:08 36.4458 -91.8456 243° Southwest 469 869 36,000  Level Memphis Center
Fri 12:44:08 36.3836 -91.9939 243° Southwest 469 869 36,000  Level Memphis Center
Fri 12:45:08 36.3211 -92.1419 242° Southwest 475 880 36,000  Level Memphis Center
Fri 12:46:08 36.2606 -92.2875 243° Southwest 475 880 36,000  Level Memphis Center
Fri 12:47:08 36.1936 -92.4325 240° Southwest 480 888 36,000  Level Memphis Center
Fri 12:48:08 36.1325 -92.5825 243° Southwest 480 888 36,000  Level Memphis Center
Fri 12:49:08 36.0694 -92.7297 242° Southwest 485 898 36,000  Level Memphis Center
Fri 12:50:08 36.0083 -92.8692 242° Southwest 485 898 36,000  Level Memphis Center
Fri 12:51:08 35.9447 -93.0158 242° Southwest 485 898 36,000  Level Memphis Center
Fri 12:52:08 35.8833 -93.1572 242° Southwest 480 888 36,000  Level Memphis Center
Fri 12:53:08 35.8128 -93.3161 241° Southwest 480 888 36,000  Level Memphis Center
Fri 12:54:08 35.7511 -93.4572 242° Southwest 480 888 36,000  Level Memphis Center
Fri 12:55:08 35.6892 -93.6006 242° Southwest 480 888 36,000  Level Memphis Center
Fri 12:56:08 35.6269 -93.7411 241° Southwest 470 871 36,000  Level Memphis Center
Fri 12:57:08 35.5625 -93.8842 241° Southwest 470 871 36,000  Level Memphis Center
Fri 12:58:08 35.4978 -94.0267 241° Southwest 476 882 36,000  Level Memphis Center
Fri 12:59:08 35.4331 -94.1692 241° Southwest 476 882 36,000  Level Memphis Center
Fri 13:05:02 34.8740 -94.8290 241° Southwest 483 895 36,000  Level FlightAware ADS-B
Fri 13:05:37 34.8200 -94.8870 221° Southwest 483 895 36,000  Level FlightAware ADS-B
Fri 13:06:27 34.7480 -94.9620 221° Southwest 483 895 36,000 -57 Level FlightAware ADS-B
Fri 13:07:22 34.6400 -95.0790 222° Southwest 483 895 35,900 -667 Descending FlightAware ADS-B
Fri 13:07:57 34.5770 -95.1460 221° Southwest 486 900 35,000 -1,280 Descending FlightAware ADS-B
Fri 13:08:37 34.5100 -95.2180 222° Southwest 487 901 34,300 -629 Descending FlightAware ADS-B
Fri 13:09:42 34.4050 -95.3290 221° Southwest 481 892 33,900 -229 Descending FlightAware ADS-B
Fri 13:10:22 34.3480 -95.3890 221° Southwest 481 892 33,900 -2,329 Level FlightAware ADS-B
Fri 13:11:07 34.2640 -95.4780 221° Southwest 463 858 30,600 -2,965 Descending FlightAware ADS-B
Fri 13:11:47 34.2030 -95.5420 221° Southwest 456 845 29,700 -918 Descending FlightAware ADS-B
Fri 13:12:32 34.1350 -95.6140 221° Southwest 452 837 29,300 -1,275 Descending FlightAware ADS-B
Fri 13:13:07 34.0770 -95.6740 221° Southwest 439 813 28,000 -2,000 Descending FlightAware ADS-B
Fri 13:13:47 34.0190 -95.7350 221° Southwest 438 811 26,800 -1,800 Descending FlightAware ADS-B
Fri 13:14:37 33.9390 -95.8190 221° Southwest 428 793 25,300 -1,733 Descending FlightAware ADS-B
Fri 13:15:17 33.8800 -95.8800 221° Southwest 424 785 24,200 -1,725 Descending FlightAware ADS-B
Fri 13:15:57 33.8200 -95.9420 221° Southwest 419 776 23,000 -1,694 Descending FlightAware ADS-B
Fri 13:16:42 33.7550 -96.0100 221° Southwest 414 766 21,800 -1,553 Descending FlightAware ADS-B
Fri 13:17:22 33.6970 -96.0700 221° Southwest 409 758 20,800 -1,482 Descending FlightAware ADS-B
Fri 13:18:07 33.6320 -96.1370 221° Southwest 404 748 19,700 -1,482 Descending FlightAware ADS-B
Fri 13:18:47 33.5780 -96.1920 220° Southwest 397 735 18,700 -1,875 Descending FlightAware ADS-B
Fri 13:19:27 33.5240 -96.2500 222° Southwest 389 721 17,200 -2,188 Descending FlightAware ADS-B
Fri 13:20:12 33.4680 -96.3170 225° Southwest 384 711 15,600 -2,188 Descending FlightAware ADS-B
Fri 13:20:52 33.4160 -96.3800 225° Southwest 381 705 14,100 -1,976 Descending FlightAware ADS-B
Fri 13:21:37 33.3610 -96.4450 225° Southwest 373 690 12,800 -1,624 Descending FlightAware ADS-B
Fri 13:22:17 33.3110 -96.5040 225° Southwest 369 684 11,800 -1,425 Descending FlightAware ADS-B
Fri 13:22:57 33.2630 -96.5610 225° Southwest 366 678 10,900 -776 Descending FlightAware ADS-B
Fri 13:23:42 33.2090 -96.6240 224° Southwest 372 689 10,700 -133 Descending FlightAware ADS-B
Fri 13:24:27 33.1530 -96.6910 225° Southwest 361 668 10,700  Level FlightAware ADS-B
Fri 13:25:07 33.1070 -96.7450 225° Southwest 366 678 10,700  Level FlightAware ADS-B
Fri 13:25:52 33.0530 -96.8090 225° Southwest 352 652 10,700  Level FlightAware ADS-B
Fri 13:26:27 33.0150 -96.8530 224° Southwest 317 587 10,700  Level FlightAware ADS-B
Fri 13:27:12 32.9660 -96.8990 218° Southwest 291 539 10,700  Level FlightAware ADS-B
Fri 13:27:27 32.9460 -96.9030 190° South 293 542 10,700 -1,200 Level FlightAware ADS-B
Fri 13:28:07 32.8920 -96.9050 182° South 291 539 9,600 -1,886 Descending FlightAware ADS-B
Fri 13:28:37 32.8510 -96.9050 180° South 287 531 8,500 -2,133 Descending FlightAware ADS-B
Fri 13:28:52 32.8320 -96.9060 183° South 283 525 8,000 -1,600 Descending FlightAware ADS-B
Fri 13:29:22 32.7940 -96.9070 181° South 261 483 7,300 -1,636 Descending FlightAware ADS-B
Fri 13:29:47 32.7650 -96.9090 183° South 244 452 6,500 -2,073 Descending FlightAware ADS-B
Fri 13:30:17 32.7320 -96.9170 192° South 233 431 5,400 -1,855 Descending FlightAware ADS-B
Fri 13:30:42 32.7080 -96.9240 194° South 215 398 4,800 -1,500 Descending FlightAware ADS-B
Fri 13:30:57 32.6980 -96.9350 223° Southwest 203 377 4,400 -1,800 Descending FlightAware ADS-B
Fri 13:31:12 32.6950 -96.9520 258° West 197 365 3,900 -764 Descending FlightAware ADS-B
Fri 13:31:52 32.7040 -96.9890 286° West 184 341 3,700 -429 Descending FlightAware ADS-B
Fri 13:32:22 32.7260 -97.0040 330° Northwest 168 311 3,400 -800 Descending FlightAware ADS-B
Fri 13:32:52 32.7460 -97.0160 333° Northwest 168 311 2,900 -840 Descending FlightAware ADS-B
Fri 13:33:12 32.7610 -97.0240 336° Northwest 166 307 2,700 -750 Descending FlightAware ADS-B
Fri 13:33:32 32.7770 -97.0260 354° North 165 306 2,400 -873 Descending FlightAware ADS-B
Fri 13:34:07 32.8020 -97.0260 360° North 166 307 1,900 -500 Descending FlightAware ADS-B
Fri 13:34:32 32.8200 -97.0260 360° North 166 307 1,900 -873 Level FlightAware ADS-B
Fri 13:35:02 32.8390 -97.0260 360° North 140 259 1,100 -873 Descending FlightAware ADS-B
Fri 13:35:27 32.8540 -97.0260 360° North 140 259 1,100  Level FlightAware ADS-B

Login

Don't have an account? Register now (free) for customized features, flight alerts, and more!